sensor_id;sensor_type;location;lat;lon;timestamp;P1;durP1;ratioP1;P2;durP2;ratioP2
74229;SDS011;62589;12.568;99.958;2023-01-01T00:01:12;16.02;;;9.95;;
74229;SDS011;62589;12.568;99.958;2023-01-01T00:03:40;14.38;;;10.50;;
74229;SDS011;62589;12.568;99.958;2023-01-01T00:06:08;17.83;;;10.85;;
74229;SDS011;62589;12.568;99.958;2023-01-01T00:08:37;16.15;;;9.88;;
74229;SDS011;62589;12.568;99.958;2023-01-01T00:11:04;16.58;;;10.75;;
74229;SDS011;62589;12.568;99.958;2023-01-01T00:13:32;16.10;;;11.40;;
74229;SDS011;62589;12.568;99.958;2023-01-01T00:16:18;17.80;;;11.55;;
74229;SDS011;62589;12.568;99.958;2023-01-01T00:18:44;16.70;;;11.75;;
74229;SDS011;62589;12.568;99.958;2023-01-01T00:21:12;16.38;;;10.80;;
74229;SDS011;62589;12.568;99.958;2023-01-01T00:23:39;17.10;;;10.98;;
74229;SDS011;62589;12.568;99.958;2023-01-01T00:26:09;18.92;;;11.07;;
74229;SDS011;62589;12.568;99.958;2023-01-01T00:28:38;15.25;;;10.63;;
74229;SDS011;62589;12.568;99.958;2023-01-01T00:31:06;16.50;;;10.82;;
74229;SDS011;62589;12.568;99.958;2023-01-01T00:33:33;16.33;;;10.45;;
74229;SDS011;62589;12.568;99.958;2023-01-01T00:36:09;17.77;;;11.35;;
74229;SDS011;62589;12.568;99.958;2023-01-01T00:38:38;14.80;;;10.82;;
74229;SDS011;62589;12.568;99.958;2023-01-01T00:41:04;13.70;;;10.23;;
74229;SDS011;62589;12.568;99.958;2023-01-01T00:43:31;17.00;;;10.77;;
74229;SDS011;62589;12.568;99.958;2023-01-01T00:45:57;18.33;;;11.13;;
74229;SDS011;62589;12.568;99.958;2023-01-01T00:48:24;19.70;;;11.25;;
74229;SDS011;62589;12.568;99.958;2023-01-01T00:50:51;17.98;;;10.70;;
74229;SDS011;62589;12.568;99.958;2023-01-01T00:53:19;16.00;;;11.32;;
74229;SDS011;62589;12.568;99.958;2023-01-01T00:55:46;17.65;;;11.48;;
74229;SDS011;62589;12.568;99.958;2023-01-01T00:58:14;22.05;;;11.85;;
74229;SDS011;62589;12.568;99.958;2023-01-01T01:00:42;16.30;;;11.55;;
74229;SDS011;62589;12.568;99.958;2023-01-01T01:03:12;16.90;;;11.57;;
74229;SDS011;62589;12.568;99.958;2023-01-01T01:05:59;17.73;;;11.85;;
74229;SDS011;62589;12.568;99.958;2023-01-01T01:08:34;18.70;;;11.57;;
74229;SDS011;62589;12.568;99.958;2023-01-01T01:11:12;16.90;;;12.05;;
74229;SDS011;62589;12.568;99.958;2023-01-01T01:13:42;19.52;;;12.82;;
74229;SDS011;62589;12.568;99.958;2023-01-01T01:16:14;21.02;;;12.45;;
74229;SDS011;62589;12.568;99.958;2023-01-01T01:18:44;17.60;;;12.20;;
74229;SDS011;62589;12.568;99.958;2023-01-01T01:21:14;21.17;;;12.45;;
74229;SDS011;62589;12.568;99.958;2023-01-01T01:23:42;16.13;;;11.60;;
74229;SDS011;62589;12.568;99.958;2023-01-01T01:26:09;19.15;;;11.82;;
74229;SDS011;62589;12.568;99.958;2023-01-01T01:28:39;16.52;;;11.63;;
74229;SDS011;62589;12.568;99.958;2023-01-01T01:31:06;22.13;;;12.48;;
74229;SDS011;62589;12.568;99.958;2023-01-01T01:33:32;18.42;;;11.35;;
74229;SDS011;62589;12.568;99.958;2023-01-01T01:36:01;17.30;;;11.27;;
74229;SDS011;62589;12.568;99.958;2023-01-01T01:38:28;17.90;;;12.18;;
74229;SDS011;62589;12.568;99.958;2023-01-01T01:40:54;20.85;;;11.63;;
74229;SDS011;62589;12.568;99.958;2023-01-01T01:43:23;16.65;;;10.90;;
74229;SDS011;62589;12.568;99.958;2023-01-01T01:46:10;15.60;;;10.80;;
74229;SDS011;62589;12.568;99.958;2023-01-01T01:48:41;15.27;;;9.98;;
74229;SDS011;62589;12.568;99.958;2023-01-01T01:51:11;16.80;;;10.75;;
74229;SDS011;62589;12.568;99.958;2023-01-01T01:53:43;16.92;;;11.35;;
74229;SDS011;62589;12.568;99.958;2023-01-01T01:56:16;19.67;;;11.90;;
74229;SDS011;62589;12.568;99.958;2023-01-01T01:58:46;17.58;;;10.98;;
74229;SDS011;62589;12.568;99.958;2023-01-01T02:01:12;16.42;;;10.32;;
74229;SDS011;62589;12.568;99.958;2023-01-01T02:03:48;14.25;;;10.90;;
74229;SDS011;62589;12.568;99.958;2023-01-01T02:06:20;16.48;;;10.73;;
74229;SDS011;62589;12.568;99.958;2023-01-01T02:08:47;18.27;;;11.30;;
74229;SDS011;62589;12.568;99.958;2023-01-01T02:11:14;19.90;;;11.05;;
74229;SDS011;62589;12.568;99.958;2023-01-01T02:13:41;19.00;;;11.18;;
74229;SDS011;62589;12.568;99.958;2023-01-01T02:24:58;17.52;;;11.13;;
74229;SDS011;62589;12.568;99.958;2023-01-01T02:27:46;15.27;;;10.82;;
74229;SDS011;62589;12.568;99.958;2023-01-01T02:30:25;16.58;;;11.10;;
74229;SDS011;62589;12.568;99.958;2023-01-01T02:32:59;15.85;;;10.75;;
74229;SDS011;62589;12.568;99.958;2023-01-01T02:35:31;16.15;;;10.32;;
74229;SDS011;62589;12.568;99.958;2023-01-01T02:38:14;15.48;;;10.43;;
74229;SDS011;62589;12.568;99.958;2023-01-01T02:40:50;16.02;;;10.27;;
74229;SDS011;62589;12.568;99.958;2023-01-01T02:43:22;17.75;;;11.82;;
74229;SDS011;62589;12.568;99.958;2023-01-01T02:45:48;14.07;;;9.95;;
74229;SDS011;62589;12.568;99.958;2023-01-01T02:51:15;15.15;;;10.60;;
74229;SDS011;62589;12.568;99.958;2023-01-01T02:53:59;13.73;;;10.20;;
74229;SDS011;62589;12.568;99.958;2023-01-01T02:56:39;16.77;;;10.10;;
74229;SDS011;62589;12.568;99.958;2023-01-01T03:02:24;15.13;;;10.07;;
74229;SDS011;62589;12.568;99.958;2023-01-01T03:08:06;16.73;;;10.93;;
74229;SDS011;62589;12.568;99.958;2023-01-01T03:10:49;17.42;;;10.38;;
74229;SDS011;62589;12.568;99.958;2023-01-01T03:13:31;15.52;;;10.27;;
74229;SDS011;62589;12.568;99.958;2023-01-01T03:21:58;14.23;;;9.98;;
74229;SDS011;62589;12.568;99.958;2023-01-01T03:24:35;18.20;;;10.43;;
74229;SDS011;62589;12.568;99.958;2023-01-01T03:30:02;12.88;;;9.00;;
74229;SDS011;62589;12.568;99.958;2023-01-01T03:32:35;14.48;;;10.10;;
74229;SDS011;62589;12.568;99.958;2023-01-01T03:35:17;12.85;;;9.40;;
74229;SDS011;62589;12.568;99.958;2023-01-01T03:37:47;14.32;;;9.68;;
74229;SDS011;62589;12.568;99.958;2023-01-01T03:40:16;16.17;;;10.20;;
74229;SDS011;62589;12.568;99.958;2023-01-01T03:45:40;13.75;;;9.63;;
74229;SDS011;62589;12.568;99.958;2023-01-01T03:48:10;14.95;;;10.20;;
74229;SDS011;62589;12.568;99.958;2023-01-01T03:50:44;13.85;;;9.70;;
74229;SDS011;62589;12.568;99.958;2023-01-01T03:53:39;17.10;;;10.38;;
74229;SDS011;62589;12.568;99.958;2023-01-01T03:56:25;14.82;;;9.45;;
74229;SDS011;62589;12.568;99.958;2023-01-01T03:59:00;12.88;;;10.00;;
74229;SDS011;62589;12.568;99.958;2023-01-01T04:01:42;16.00;;;11.25;;
74229;SDS011;62589;12.568;99.958;2023-01-01T04:04:13;16.83;;;11.13;;
74229;SDS011;62589;12.568;99.958;2023-01-01T04:06:40;16.83;;;11.32;;
74229;SDS011;62589;12.568;99.958;2023-01-01T04:09:11;17.48;;;11.57;;
74229;SDS011;62589;12.568;99.958;2023-01-01T04:11:43;17.23;;;11.80;;
74229;SDS011;62589;12.568;99.958;2023-01-01T04:14:27;20.65;;;12.70;;
74229;SDS011;62589;12.568;99.958;2023-01-01T04:16:55;19.58;;;13.27;;
74229;SDS011;62589;12.568;99.958;2023-01-01T04:19:22;18.65;;;13.10;;
74229;SDS011;62589;12.568;99.958;2023-01-01T04:21:48;17.30;;;11.90;;
74229;SDS011;62589;12.568;99.958;2023-01-01T04:24:15;17.45;;;11.93;;
74229;SDS011;62589;12.568;99.958;2023-01-01T04:26:41;16.42;;;11.35;;
74229;SDS011;62589;12.568;99.958;2023-01-01T04:29:08;18.25;;;11.82;;
74229;SDS011;62589;12.568;99.958;2023-01-01T04:31:35;15.32;;;11.13;;
74229;SDS011;62589;12.568;99.958;2023-01-01T04:34:01;19.15;;;12.10;;
74229;SDS011;62589;12.568;99.958;2023-01-01T04:36:28;17.02;;;11.02;;
74229;SDS011;62589;12.568;99.958;2023-01-01T04:38:54;17.50;;;11.57;;
74229;SDS011;62589;12.568;99.958;2023-01-01T04:41:21;17.92;;;11.43;;
74229;SDS011;62589;12.568;99.958;2023-01-01T04:43:47;20.30;;;12.07;;
74229;SDS011;62589;12.568;99.958;2023-01-01T04:46:15;23.42;;;13.50;;
74229;SDS011;62589;12.568;99.958;2023-01-01T04:48:44;23.10;;;12.80;;
74229;SDS011;62589;12.568;99.958;2023-01-01T04:51:11;18.70;;;11.98;;
74229;SDS011;62589;12.568;99.958;2023-01-01T04:53:39;20.25;;;12.57;;
74229;SDS011;62589;12.568;99.958;2023-01-01T04:56:07;15.75;;;11.27;;
74229;SDS011;62589;12.568;99.958;2023-01-01T04:58:36;24.70;;;12.80;;
74229;SDS011;62589;12.568;99.958;2023-01-01T05:01:04;17.55;;;11.98;;
74229;SDS011;62589;12.568;99.958;2023-01-01T05:03:32;29.33;;;13.48;;
74229;SDS011;62589;12.568;99.958;2023-01-01T05:06:06;19.65;;;12.93;;
74229;SDS011;62589;12.568;99.958;2023-01-01T05:08:35;17.73;;;11.77;;
74229;SDS011;62589;12.568;99.958;2023-01-01T05:11:05;18.23;;;12.27;;
74229;SDS011;62589;12.568;99.958;2023-01-01T05:13:34;17.02;;;12.43;;
74229;SDS011;62589;12.568;99.958;2023-01-01T05:16:01;18.88;;;13.10;;
74229;SDS011;62589;12.568;99.958;2023-01-01T05:18:29;21.70;;;12.65;;
74229;SDS011;62589;12.568;99.958;2023-01-01T05:20:59;20.65;;;11.57;;
74229;SDS011;62589;12.568;99.958;2023-01-01T05:23:30;20.50;;;13.35;;
74229;SDS011;62589;12.568;99.958;2023-01-01T05:25:57;25.00;;;13.45;;
74229;SDS011;62589;12.568;99.958;2023-01-01T05:28:23;18.08;;;12.55;;
74229;SDS011;62589;12.568;99.958;2023-01-01T05:30:50;17.90;;;13.55;;
74229;SDS011;62589;12.568;99.958;2023-01-01T05:33:18;17.08;;;12.20;;
74229;SDS011;62589;12.568;99.958;2023-01-01T05:35:45;15.45;;;11.25;;
74229;SDS011;62589;12.568;99.958;2023-01-01T05:38:19;19.05;;;12.52;;
74229;SDS011;62589;12.568;99.958;2023-01-01T05:40:45;21.58;;;12.63;;
74229;SDS011;62589;12.568;99.958;2023-01-01T05:43:11;17.80;;;12.30;;
74229;SDS011;62589;12.568;99.958;2023-01-01T05:45:38;18.10;;;12.40;;
74229;SDS011;62589;12.568;99.958;2023-01-01T05:48:04;18.95;;;13.25;;
74229;SDS011;62589;12.568;99.958;2023-01-01T05:50:31;24.25;;;13.13;;
74229;SDS011;62589;12.568;99.958;2023-01-01T05:52:57;19.42;;;13.32;;
74229;SDS011;62589;12.568;99.958;2023-01-01T05:55:24;20.33;;;12.20;;
74229;SDS011;62589;12.568;99.958;2023-01-01T05:57:50;19.02;;;12.88;;
74229;SDS011;62589;12.568;99.958;2023-01-01T06:00:16;20.15;;;12.35;;
74229;SDS011;62589;12.568;99.958;2023-01-01T06:02:43;22.48;;;12.55;;
74229;SDS011;62589;12.568;99.958;2023-01-01T06:05:09;18.25;;;12.77;;
74229;SDS011;62589;12.568;99.958;2023-01-01T06:07:36;16.85;;;12.30;;
74229;SDS011;62589;12.568;99.958;2023-01-01T06:10:02;17.10;;;12.82;;
74229;SDS011;62589;12.568;99.958;2023-01-01T06:12:29;19.85;;;12.25;;
74229;SDS011;62589;12.568;99.958;2023-01-01T06:14:55;18.80;;;13.05;;
74229;SDS011;62589;12.568;99.958;2023-01-01T06:17:22;20.67;;;13.27;;
74229;SDS011;62589;12.568;99.958;2023-01-01T06:19:48;19.40;;;13.15;;
74229;SDS011;62589;12.568;99.958;2023-01-01T06:22:15;17.80;;;12.35;;
74229;SDS011;62589;12.568;99.958;2023-01-01T06:24:41;22.33;;;13.35;;
74229;SDS011;62589;12.568;99.958;2023-01-01T06:27:07;22.10;;;13.63;;
74229;SDS011;62589;12.568;99.958;2023-01-01T06:29:34;20.10;;;13.50;;
74229;SDS011;62589;12.568;99.958;2023-01-01T06:32:00;15.65;;;11.90;;
74229;SDS011;62589;12.568;99.958;2023-01-01T06:34:27;20.15;;;13.32;;
74229;SDS011;62589;12.568;99.958;2023-01-01T06:36:53;20.02;;;12.60;;
74229;SDS011;62589;12.568;99.958;2023-01-01T06:39:19;23.33;;;13.27;;
74229;SDS011;62589;12.568;99.958;2023-01-01T06:41:46;18.95;;;13.05;;
74229;SDS011;62589;12.568;99.958;2023-01-01T06:44:12;25.75;;;14.38;;
74229;SDS011;62589;12.568;99.958;2023-01-01T06:46:38;19.63;;;12.50;;
74229;SDS011;62589;12.568;99.958;2023-01-01T06:49:06;19.55;;;12.65;;
74229;SDS011;62589;12.568;99.958;2023-01-01T06:51:37;18.08;;;12.20;;
74229;SDS011;62589;12.568;99.958;2023-01-01T06:54:05;17.73;;;12.68;;
74229;SDS011;62589;12.568;99.958;2023-01-01T06:56:32;22.77;;;14.13;;
74229;SDS011;62589;12.568;99.958;2023-01-01T06:58:59;18.48;;;12.52;;
74229;SDS011;62589;12.568;99.958;2023-01-01T07:01:27;18.88;;;12.82;;
74229;SDS011;62589;12.568;99.958;2023-01-01T07:04:02;17.58;;;13.32;;
74229;SDS011;62589;12.568;99.958;2023-01-01T07:06:31;18.15;;;12.52;;
74229;SDS011;62589;12.568;99.958;2023-01-01T07:08:57;20.50;;;13.52;;
74229;SDS011;62589;12.568;99.958;2023-01-01T07:11:24;18.30;;;12.48;;
74229;SDS011;62589;12.568;99.958;2023-01-01T07:13:51;19.63;;;11.63;;
74229;SDS011;62589;12.568;99.958;2023-01-01T07:16:18;19.58;;;11.57;;
74229;SDS011;62589;12.568;99.958;2023-01-01T07:18:45;20.80;;;11.77;;
74229;SDS011;62589;12.568;99.958;2023-01-01T07:23:59;15.18;;;10.40;;
74229;SDS011;62589;12.568;99.958;2023-01-01T07:26:28;15.68;;;10.85;;
74229;SDS011;62589;12.568;99.958;2023-01-01T07:28:55;15.90;;;11.57;;
74229;SDS011;62589;12.568;99.958;2023-01-01T07:31:22;15.38;;;10.85;;
74229;SDS011;62589;12.568;99.958;2023-01-01T07:33:49;17.40;;;10.88;;
74229;SDS011;62589;12.568;99.958;2023-01-01T07:36:15;15.57;;;10.55;;
74229;SDS011;62589;12.568;99.958;2023-01-01T07:38:42;15.48;;;10.25;;
74229;SDS011;62589;12.568;99.958;2023-01-01T07:41:08;12.75;;;10.07;;
74229;SDS011;62589;12.568;99.958;2023-01-01T07:43:35;14.18;;;10.40;;
74229;SDS011;62589;12.568;99.958;2023-01-01T07:46:01;14.38;;;9.88;;
74229;SDS011;62589;12.568;99.958;2023-01-01T07:48:28;16.00;;;10.27;;
74229;SDS011;62589;12.568;99.958;2023-01-01T07:50:55;15.15;;;10.10;;
74229;SDS011;62589;12.568;99.958;2023-01-01T07:53:21;15.77;;;10.57;;
74229;SDS011;62589;12.568;99.958;2023-01-01T07:55:47;15.68;;;10.07;;
74229;SDS011;62589;12.568;99.958;2023-01-01T07:58:14;14.88;;;9.30;;
74229;SDS011;62589;12.568;99.958;2023-01-01T08:00:43;14.35;;;9.80;;
74229;SDS011;62589;12.568;99.958;2023-01-01T08:03:12;16.05;;;10.02;;
74229;SDS011;62589;12.568;99.958;2023-01-01T08:05:38;18.02;;;10.45;;
74229;SDS011;62589;12.568;99.958;2023-01-01T08:08:05;18.50;;;10.45;;
74229;SDS011;62589;12.568;99.958;2023-01-01T08:10:31;12.85;;;9.93;;
74229;SDS011;62589;12.568;99.958;2023-01-01T08:12:58;13.52;;;9.88;;
74229;SDS011;62589;12.568;99.958;2023-01-01T08:15:26;13.68;;;10.15;;
74229;SDS011;62589;12.568;99.958;2023-01-01T08:17:56;15.93;;;9.43;;
74229;SDS011;62589;12.568;99.958;2023-01-01T08:20:24;12.48;;;9.43;;
74229;SDS011;62589;12.568;99.958;2023-01-01T08:22:51;15.73;;;10.02;;
74229;SDS011;62589;12.568;99.958;2023-01-01T08:25:17;11.98;;;8.73;;
74229;SDS011;62589;12.568;99.958;2023-01-01T08:27:44;14.52;;;9.80;;
74229;SDS011;62589;12.568;99.958;2023-01-01T08:30:11;13.13;;;9.18;;
74229;SDS011;62589;12.568;99.958;2023-01-01T08:32:38;13.40;;;10.05;;
74229;SDS011;62589;12.568;99.958;2023-01-01T08:35:05;12.23;;;8.88;;
74229;SDS011;62589;12.568;99.958;2023-01-01T08:37:32;12.40;;;8.00;;
74229;SDS011;62589;12.568;99.958;2023-01-01T08:39:58;11.85;;;7.55;;
74229;SDS011;62589;12.568;99.958;2023-01-01T08:42:25;9.07;;;6.57;;
74229;SDS011;62589;12.568;99.958;2023-01-01T08:44:51;10.23;;;7.13;;
74229;SDS011;62589;12.568;99.958;2023-01-01T08:47:18;10.52;;;7.10;;
74229;SDS011;62589;12.568;99.958;2023-01-01T08:49:46;10.20;;;7.43;;
74229;SDS011;62589;12.568;99.958;2023-01-01T08:52:13;12.80;;;7.78;;
74229;SDS011;62589;12.568;99.958;2023-01-01T08:54:39;10.30;;;7.75;;
74229;SDS011;62589;12.568;99.958;2023-01-01T08:57:06;13.43;;;7.82;;
74229;SDS011;62589;12.568;99.958;2023-01-01T08:59:33;9.45;;;6.93;;
74229;SDS011;62589;12.568;99.958;2023-01-01T09:01:59;12.15;;;8.07;;
74229;SDS011;62589;12.568;99.958;2023-01-01T09:04:25;9.43;;;7.35;;
74229;SDS011;62589;12.568;99.958;2023-01-01T09:06:52;8.50;;;6.70;;
74229;SDS011;62589;12.568;99.958;2023-01-01T09:09:18;9.52;;;6.68;;
74229;SDS011;62589;12.568;99.958;2023-01-01T09:11:54;8.07;;;6.68;;
74229;SDS011;62589;12.568;99.958;2023-01-01T09:14:23;10.63;;;6.13;;
74229;SDS011;62589;12.568;99.958;2023-01-01T09:16:50;10.88;;;6.80;;
74229;SDS011;62589;12.568;99.958;2023-01-01T09:19:16;10.70;;;7.70;;
74229;SDS011;62589;12.568;99.958;2023-01-01T09:21:42;11.73;;;6.95;;
74229;SDS011;62589;12.568;99.958;2023-01-01T09:24:09;11.07;;;7.00;;
74229;SDS011;62589;12.568;99.958;2023-01-01T09:26:35;11.05;;;7.78;;
74229;SDS011;62589;12.568;99.958;2023-01-01T09:29:02;11.27;;;8.25;;
74229;SDS011;62589;12.568;99.958;2023-01-01T09:31:28;9.57;;;7.82;;
74229;SDS011;62589;12.568;99.958;2023-01-01T09:33:55;13.63;;;8.05;;
74229;SDS011;62589;12.568;99.958;2023-01-01T09:36:28;11.88;;;8.57;;
74229;SDS011;62589;12.568;99.958;2023-01-01T09:38:57;11.63;;;9.05;;
74229;SDS011;62589;12.568;99.958;2023-01-01T09:47:31;9.65;;;7.85;;
74229;SDS011;62589;12.568;99.958;2023-01-01T09:50:14;14.43;;;7.70;;
74229;SDS011;62589;12.568;99.958;2023-01-01T09:52:51;13.18;;;8.00;;
74229;SDS011;62589;12.568;99.958;2023-01-01T09:55:27;10.13;;;7.63;;
74229;SDS011;62589;12.568;99.958;2023-01-01T09:58:03;9.75;;;7.40;;
74229;SDS011;62589;12.568;99.958;2023-01-01T10:00:29;9.77;;;7.28;;
74229;SDS011;62589;12.568;99.958;2023-01-01T10:03:07;9.80;;;7.07;;
74229;SDS011;62589;12.568;99.958;2023-01-01T10:05:52;10.23;;;7.35;;
74229;SDS011;62589;12.568;99.958;2023-01-01T10:08:30;9.52;;;7.40;;
74229;SDS011;62589;12.568;99.958;2023-01-01T10:11:16;12.15;;;7.45;;
74229;SDS011;62589;12.568;99.958;2023-01-01T10:13:51;10.23;;;7.63;;
74229;SDS011;62589;12.568;99.958;2023-01-01T10:16:38;11.32;;;7.43;;
74229;SDS011;62589;12.568;99.958;2023-01-01T10:22:03;13.57;;;8.38;;
74229;SDS011;62589;12.568;99.958;2023-01-01T10:24:44;13.20;;;8.70;;
74229;SDS011;62589;12.568;99.958;2023-01-01T10:27:40;12.00;;;8.68;;
74229;SDS011;62589;12.568;99.958;2023-01-01T10:30:19;11.18;;;7.80;;
74229;SDS011;62589;12.568;99.958;2023-01-01T10:32:54;11.00;;;7.97;;
74229;SDS011;62589;12.568;99.958;2023-01-01T10:35:23;11.02;;;8.18;;
74229;SDS011;62589;12.568;99.958;2023-01-01T10:37:59;11.93;;;8.30;;
74229;SDS011;62589;12.568;99.958;2023-01-01T10:40:28;10.75;;;8.35;;
74229;SDS011;62589;12.568;99.958;2023-01-01T10:42:56;11.70;;;9.07;;
74229;SDS011;62589;12.568;99.958;2023-01-01T10:45:33;12.73;;;9.10;;
74229;SDS011;62589;12.568;99.958;2023-01-01T10:48:08;16.42;;;8.90;;
74229;SDS011;62589;12.568;99.958;2023-01-01T10:50:47;11.57;;;8.50;;
74229;SDS011;62589;12.568;99.958;2023-01-01T10:53:35;12.23;;;8.98;;
74229;SDS011;62589;12.568;99.958;2023-01-01T10:56:07;16.27;;;9.65;;
74229;SDS011;62589;12.568;99.958;2023-01-01T10:58:49;11.95;;;7.72;;
74229;SDS011;62589;12.568;99.958;2023-01-01T11:06:52;12.52;;;8.95;;
74229;SDS011;62589;12.568;99.958;2023-01-01T11:09:22;10.85;;;8.02;;
74229;SDS011;62589;12.568;99.958;2023-01-01T11:11:55;10.88;;;8.55;;
74229;SDS011;62589;12.568;99.958;2023-01-01T11:17:27;13.00;;;9.10;;
74229;SDS011;62589;12.568;99.958;2023-01-01T11:19:59;12.73;;;9.05;;
74229;SDS011;62589;12.568;99.958;2023-01-01T11:30:57;12.55;;;8.80;;
74229;SDS011;62589;12.568;99.958;2023-01-01T11:33:45;12.95;;;8.88;;
74229;SDS011;62589;12.568;99.958;2023-01-01T11:36:24;14.07;;;9.88;;
74229;SDS011;62589;12.568;99.958;2023-01-01T11:41:46;12.15;;;9.63;;
74229;SDS011;62589;12.568;99.958;2023-01-01T11:44:23;13.30;;;9.43;;
74229;SDS011;62589;12.568;99.958;2023-01-01T11:47:05;12.43;;;8.45;;
74229;SDS011;62589;12.568;99.958;2023-01-01T11:49:44;15.18;;;9.98;;
74229;SDS011;62589;12.568;99.958;2023-01-01T11:55:17;12.65;;;8.90;;
74229;SDS011;62589;12.568;99.958;2023-01-01T12:01:07;9.85;;;8.48;;
74229;SDS011;62589;12.568;99.958;2023-01-01T12:04:00;11.50;;;8.50;;
74229;SDS011;62589;12.568;99.958;2023-01-01T12:06:46;13.00;;;9.15;;
74229;SDS011;62589;12.568;99.958;2023-01-01T12:09:39;13.32;;;9.07;;
74229;SDS011;62589;12.568;99.958;2023-01-01T12:12:20;16.25;;;10.73;;
74229;SDS011;62589;12.568;99.958;2023-01-01T12:14:56;18.55;;;10.90;;
74229;SDS011;62589;12.568;99.958;2023-01-01T12:17:41;19.92;;;12.88;;
74229;SDS011;62589;12.568;99.958;2023-01-01T12:20:21;20.17;;;12.50;;
74229;SDS011;62589;12.568;99.958;2023-01-01T12:22:57;20.13;;;11.52;;
74229;SDS011;62589;12.568;99.958;2023-01-01T12:25:27;20.48;;;12.10;;
74229;SDS011;62589;12.568;99.958;2023-01-01T12:28:24;15.15;;;11.35;;
74229;SDS011;62589;12.568;99.958;2023-01-01T12:34:06;19.02;;;12.43;;
74229;SDS011;62589;12.568;99.958;2023-01-01T12:39:49;23.02;;;12.73;;
74229;SDS011;62589;12.568;99.958;2023-01-01T12:48:29;20.17;;;13.82;;
74229;SDS011;62589;12.568;99.958;2023-01-01T12:54:10;20.95;;;13.30;;
74229;SDS011;62589;12.568;99.958;2023-01-01T12:57:03;21.75;;;13.35;;
74229;SDS011;62589;12.568;99.958;2023-01-01T12:59:43;23.17;;;14.43;;
74229;SDS011;62589;12.568;99.958;2023-01-01T13:05:06;21.17;;;13.70;;
74229;SDS011;62589;12.568;99.958;2023-01-01T13:07:43;23.45;;;13.93;;
74229;SDS011;62589;12.568;99.958;2023-01-01T13:12:56;20.80;;;13.50;;
74229;SDS011;62589;12.568;99.958;2023-01-01T13:18:19;21.40;;;13.27;;
74229;SDS011;62589;12.568;99.958;2023-01-01T13:23:47;19.02;;;13.30;;
74229;SDS011;62589;12.568;99.958;2023-01-01T13:32:00;21.60;;;14.02;;
74229;SDS011;62589;12.568;99.958;2023-01-01T13:34:33;22.08;;;13.05;;
74229;SDS011;62589;12.568;99.958;2023-01-01T13:37:26;20.95;;;12.77;;
74229;SDS011;62589;12.568;99.958;2023-01-01T13:39:58;19.88;;;12.63;;
74229;SDS011;62589;12.568;99.958;2023-01-01T13:45:31;21.77;;;12.68;;
74229;SDS011;62589;12.568;99.958;2023-01-01T13:56:36;19.35;;;12.45;;
74229;SDS011;62589;12.568;99.958;2023-01-01T14:02:24;20.08;;;11.95;;
74229;SDS011;62589;12.568;99.958;2023-01-01T14:05:06;22.48;;;12.23;;
74229;SDS011;62589;12.568;99.958;2023-01-01T14:07:48;21.23;;;12.57;;
74229;SDS011;62589;12.568;99.958;2023-01-01T14:10:35;16.08;;;11.60;;
74229;SDS011;62589;12.568;99.958;2023-01-01T14:15:54;18.73;;;11.68;;
74229;SDS011;62589;12.568;99.958;2023-01-01T14:18:33;17.23;;;11.02;;
74229;SDS011;62589;12.568;99.958;2023-01-01T14:21:07;18.80;;;12.27;;
74229;SDS011;62589;12.568;99.958;2023-01-01T14:26:08;17.98;;;12.52;;
74229;SDS011;62589;12.568;99.958;2023-01-01T14:28:46;18.02;;;11.75;;
74229;SDS011;62589;12.568;99.958;2023-01-01T14:31:20;18.77;;;11.63;;
74229;SDS011;62589;12.568;99.958;2023-01-01T14:33:51;22.20;;;12.98;;
74229;SDS011;62589;12.568;99.958;2023-01-01T14:36:24;18.98;;;12.18;;
74229;SDS011;62589;12.568;99.958;2023-01-01T14:38:56;15.88;;;11.52;;
74229;SDS011;62589;12.568;99.958;2023-01-01T14:41:33;18.42;;;11.75;;
74229;SDS011;62589;12.568;99.958;2023-01-01T14:44:14;18.58;;;11.05;;
74229;SDS011;62589;12.568;99.958;2023-01-01T14:46:44;17.50;;;11.98;;
74229;SDS011;62589;12.568;99.958;2023-01-01T14:49:15;16.55;;;11.40;;
74229;SDS011;62589;12.568;99.958;2023-01-01T14:51:53;16.02;;;11.52;;
74229;SDS011;62589;12.568;99.958;2023-01-01T14:54:24;17.02;;;11.80;;
74229;SDS011;62589;12.568;99.958;2023-01-01T14:57:08;17.95;;;11.45;;
74229;SDS011;62589;12.568;99.958;2023-01-01T14:59:36;15.73;;;11.18;;
74229;SDS011;62589;12.568;99.958;2023-01-01T15:02:15;17.98;;;11.15;;
74229;SDS011;62589;12.568;99.958;2023-01-01T15:04:46;16.90;;;10.68;;
74229;SDS011;62589;12.568;99.958;2023-01-01T15:07:23;18.13;;;10.57;;
74229;SDS011;62589;12.568;99.958;2023-01-01T15:09:55;17.10;;;10.95;;
74229;SDS011;62589;12.568;99.958;2023-01-01T15:12:34;15.77;;;10.38;;
74229;SDS011;62589;12.568;99.958;2023-01-01T15:15:01;15.07;;;10.00;;
74229;SDS011;62589;12.568;99.958;2023-01-01T15:17:28;15.57;;;10.23;;
74229;SDS011;62589;12.568;99.958;2023-01-01T15:20:21;15.52;;;10.63;;
74229;SDS011;62589;12.568;99.958;2023-01-01T15:22:49;15.00;;;10.25;;
74229;SDS011;62589;12.568;99.958;2023-01-01T15:25:17;15.10;;;10.38;;
74229;SDS011;62589;12.568;99.958;2023-01-01T15:27:48;13.57;;;9.38;;
74229;SDS011;62589;12.568;99.958;2023-01-01T15:30:25;15.77;;;10.10;;
74229;SDS011;62589;12.568;99.958;2023-01-01T15:32:54;18.13;;;11.25;;
74229;SDS011;62589;12.568;99.958;2023-01-01T15:35:27;14.75;;;10.27;;
74229;SDS011;62589;12.568;99.958;2023-01-01T15:37:57;15.05;;;10.20;;
74229;SDS011;62589;12.568;99.958;2023-01-01T15:40:28;15.05;;;9.88;;
74229;SDS011;62589;12.568;99.958;2023-01-01T15:43:15;14.27;;;9.90;;
74229;SDS011;62589;12.568;99.958;2023-01-01T15:45:55;15.30;;;10.30;;
74229;SDS011;62589;12.568;99.958;2023-01-01T15:48:48;12.02;;;9.00;;
74229;SDS011;62589;12.568;99.958;2023-01-01T15:51:17;13.85;;;9.95;;
74229;SDS011;62589;12.568;99.958;2023-01-01T15:56:40;13.55;;;9.85;;
74229;SDS011;62589;12.568;99.958;2023-01-01T16:01:48;17.50;;;10.55;;
74229;SDS011;62589;12.568;99.958;2023-01-01T16:04:16;13.90;;;10.07;;
74229;SDS011;62589;12.568;99.958;2023-01-01T16:06:47;15.57;;;10.05;;
74229;SDS011;62589;12.568;99.958;2023-01-01T16:09:16;14.70;;;9.70;;
74229;SDS011;62589;12.568;99.958;2023-01-01T16:11:43;16.20;;;10.40;;
74229;SDS011;62589;12.568;99.958;2023-01-01T16:14:10;14.68;;;10.00;;
74229;SDS011;62589;12.568;99.958;2023-01-01T16:16:37;13.85;;;9.63;;
74229;SDS011;62589;12.568;99.958;2023-01-01T16:19:10;14.05;;;9.30;;
74229;SDS011;62589;12.568;99.958;2023-01-01T16:21:41;15.63;;;10.57;;
74229;SDS011;62589;12.568;99.958;2023-01-01T16:24:11;13.10;;;9.27;;
74229;SDS011;62589;12.568;99.958;2023-01-01T16:26:39;15.18;;;10.00;;
74229;SDS011;62589;12.568;99.958;2023-01-01T16:29:06;14.75;;;10.18;;
74229;SDS011;62589;12.568;99.958;2023-01-01T16:31:33;13.88;;;9.50;;
74229;SDS011;62589;12.568;99.958;2023-01-01T16:34:00;15.38;;;9.77;;
74229;SDS011;62589;12.568;99.958;2023-01-01T16:36:27;12.70;;;9.68;;
74229;SDS011;62589;12.568;99.958;2023-01-01T16:38:54;14.38;;;9.65;;
74229;SDS011;62589;12.568;99.958;2023-01-01T16:41:21;14.65;;;10.25;;
74229;SDS011;62589;12.568;99.958;2023-01-01T16:43:48;15.23;;;9.63;;